Time;durP1;ratioP1;P1;durP2;ratioP2;P2;SDS_P1;SDS_P2;PMS_P1;PMS_P2;Temp;Humidity;BMP_temperature;BMP_pressure;BME280_temperature;BME280_humidity;BME280_pressure;Samples;Min_cycle;Max_cycle;Signal;HPM_P1;HPM_P2
2021/05/11 00:01:51;;;;;;;13.30;3.78;;;10.40;99.90;;;;;;4849136;29;20064;-89
2021/05/11 00:04:26;;;;;;;15.60;5.70;;;10.40;99.90;;;;;;4840890;29;20524;-90
2021/05/11 00:07:06;;;;;;;22.63;3.53;;;9.10;99.90;;;;;;4871065;29;20053;-89
2021/05/11 00:09:51;;;;;;;10.07;3.10;;;10.20;99.90;;;;;;4872815;29;20056;-90
2021/05/11 00:12:39;;;;;;;11.77;3.83;;;10.40;99.90;;;;;;4901323;29;20052;-91
2021/05/11 00:15:25;;;;;;;10.13;3.35;;;10.30;99.90;;;;;;4864361;29;20048;-90
2021/05/11 00:18:02;;;;;;;13.23;5.32;;;10.30;99.90;;;;;;4900073;29;20049;-91
2021/05/11 00:20:52;;;;;;;15.82;4.22;;;10.20;99.90;;;;;;4871716;29;20065;-91
2021/05/11 00:23:30;;;;;;;11.60;3.75;;;10.30;99.90;;;;;;4888772;29;20329;-90
2021/05/11 00:26:04;;;;;;;18.63;4.85;;;10.20;99.90;;;;;;4863509;29;20053;-90
2021/05/11 00:28:56;;;;;;;19.30;4.20;;;10.10;99.90;;;;;;4862086;29;20041;-91
2021/05/11 00:31:46;;;;;;;16.52;3.97;;;10.10;99.90;;;;;;4886889;29;20049;-90
2021/05/11 00:34:31;;;;;;;13.23;4.35;;;10.00;99.90;;;;;;4890944;29;20641;-90
2021/05/11 00:37:09;;;;;;;12.93;3.25;;;9.90;99.90;;;;;;4860242;29;20053;-90
2021/05/11 00:39:44;;;;;;;14.40;3.55;;;10.00;99.90;;;;;;4870691;29;20065;-91
2021/05/11 00:42:33;;;;;;;17.65;5.10;;;9.80;99.90;;;;;;4902030;29;20064;-91
2021/05/11 00:45:24;;;;;;;11.32;3.30;;;9.90;99.90;;;;;;4893767;29;20057;-90
2021/05/11 00:48:19;;;;;;;12.10;4.25;;;9.70;99.90;;;;;;4860933;29;20044;-92
2021/05/11 00:51:15;;;;;;;14.40;3.97;;;9.70;99.90;;;;;;4878993;29;20083;-90
2021/05/11 00:53:45;;;;;;;7.40;2.95;;;9.70;99.90;;;;;;4904248;29;20084;-90
2021/05/11 00:56:31;;;;;;;10.73;3.08;;;9.70;99.90;;;;;;4901365;29;20061;-91
2021/05/11 00:59:24;;;;;;;11.25;3.15;;;8.70;99.90;;;;;;4871237;29;20130;-90
2021/05/11 01:02:08;;;;;;;8.02;3.10;;;9.80;99.90;;;;;;4871441;29;20405;-89
2021/05/11 01:04:55;;;;;;;13.10;4.90;;;9.70;99.90;;;;;;4897661;29;20045;-91
2021/05/11 01:07:46;;;;;;;;;;;9.70;99.90;;;;;;4882640;29;20053;-89
2021/05/11 01:10:32;;;;;;;11.07;4.10;;;9.80;99.90;;;;;;4876742;29;19923;-91
2021/05/11 01:13:11;;;;;;;13.52;4.00;;;9.60;99.90;;;;;;4856355;29;20057;-91
2021/05/11 01:16:32;;;;;;;16.08;4.70;;;9.60;99.90;;;;;;4875276;29;20220;-90
2021/05/11 01:20:06;;;;;;;9.47;3.10;;;8.20;99.90;;;;;;4877316;29;20049;-91
2021/05/11 01:26:16;;;;;;;13.10;3.65;;;9.60;99.90;;;;;;4888084;29;20053;-90
2021/05/11 01:44:54;;;;;;;16.70;5.30;;;9.40;99.90;;;;;;4924337;29;20051;-91
2021/05/11 01:50:27;;;;;;;20.48;5.20;;;9.40;99.90;;;;;;4937835;29;20436;-90
2021/05/11 02:23:09;;;;;;;13.75;3.75;;;9.10;99.90;;;;;;4947355;29;20063;-90
2021/05/11 02:25:53;;;;;;;9.95;2.67;;;9.00;99.90;;;;;;4917052;29;20059;-90
2021/05/11 02:28:36;;;;;;;14.02;3.63;;;9.10;99.90;;;;;;4911175;29;20047;-91
2021/05/11 02:31:09;;;;;;;8.05;2.65;;;10.10;99.90;;;;;;4923816;29;20048;-90
2021/05/11 02:33:50;;;;;;;4.50;2.70;;;8.90;99.90;;;;;;4928138;29;20051;-91
2021/05/11 02:36:44;;;;;;;7.50;3.67;;;8.80;99.90;;;;;;4920809;29;20482;-91
2021/05/11 02:39:29;;;;;;;13.82;3.83;;;8.90;99.90;;;;;;4931012;29;20043;-90
2021/05/11 02:42:09;;;;;;;7.35;3.15;;;8.80;99.90;;;;;;4931148;29;20040;-90
2021/05/11 02:44:43;;;;;;;15.30;3.65;;;9.20;99.90;;;;;;4922807;29;20050;-90
2021/05/11 02:47:14;;;;;;;22.92;4.45;;;9.50;99.90;;;;;;4915028;29;20056;-90
2021/05/11 02:49:48;;;;;;;8.88;4.10;;;8.50;99.90;;;;;;4917193;29;20059;-92
2021/05/11 02:52:19;;;;;;;12.07;3.10;;;8.50;99.90;;;;;;4905952;29;20051;-89
2021/05/11 02:54:48;;;;;;;11.82;4.22;;;8.50;99.90;;;;;;4944541;29;20043;-91
2021/05/11 02:57:17;;;;;;;13.30;4.18;;;8.50;99.90;;;;;;4926708;29;20052;-90
2021/05/11 02:59:51;;;;;;;10.18;3.13;;;8.80;99.90;;;;;;4941883;29;20067;-90
2021/05/11 03:02:28;;;;;;;7.85;3.40;;;8.40;99.90;;;;;;4931102;29;20048;-89
2021/05/11 03:04:58;;;;;;;8.77;3.25;;;8.40;99.90;;;;;;4936002;29;20058;-89
2021/05/11 03:07:29;;;;;;;15.48;2.78;;;8.30;99.90;;;;;;4905489;29;20066;-91
2021/05/11 03:09:59;;;;;;;10.52;3.47;;;8.40;99.90;;;;;;4937908;29;20059;-89
2021/05/11 03:12:28;;;;;;;11.23;4.97;;;8.30;99.90;;;;;;4907816;29;20044;-90
2021/05/11 03:14:56;;;;;;;10.95;3.05;;;8.30;99.90;;;;;;4945701;29;20060;-90
2021/05/11 03:17:30;;;;;;;13.23;5.18;;;8.30;99.90;;;;;;4949742;29;20040;-90
2021/05/11 03:19:59;;;;;;;4.18;2.45;;;8.20;99.90;;;;;;4920306;29;20060;-91
2021/05/11 03:22:32;;;;;;;14.65;2.83;;;8.10;99.90;;;;;;4937938;29;20044;-91
2021/05/11 03:25:08;;;;;;;9.43;3.08;;;8.10;99.90;;;;;;4928965;29;20060;-90
2021/05/11 03:27:40;;;;;;;10.57;2.83;;;8.00;99.90;;;;;;4941759;29;20052;-90
2021/05/11 03:30:12;;;;;;;8.73;3.30;;;8.80;99.90;;;;;;4909851;29;20235;-91
2021/05/11 03:32:44;;;;;;;10.13;2.97;;;7.90;99.90;;;;;;4916730;29;20066;-90
2021/05/11 03:35:14;;;;;;;;;;;7.90;99.90;;;;;;4922482;29;20056;-89
2021/05/11 03:37:43;;;;;;;6.65;2.55;;;7.90;99.90;;;;;;4936874;29;19933;-91
2021/05/11 03:40:13;;;;;;;13.15;4.78;;;9.30;99.90;;;;;;4935351;29;20071;-90
2021/05/11 03:42:58;;;;;;;11.30;4.00;;;7.80;99.90;;;;;;4937433;29;20501;-90
2021/05/11 03:45:33;;;;;;;9.82;3.63;;;9.40;99.90;;;;;;4943632;29;20047;-91
2021/05/11 03:48:01;;;;;;;16.58;3.22;;;7.80;99.90;;;;;;4910173;29;20054;-91
2021/05/11 03:50:31;;;;;;;9.07;3.22;;;7.80;99.90;;;;;;4920322;29;20661;-90
2021/05/11 03:53:05;;;;;;;12.90;3.33;;;7.70;99.90;;;;;;4943789;29;20415;-90
2021/05/11 03:55:39;;;;;;;13.95;3.78;;;7.70;99.90;;;;;;4944943;29;20058;-90
2021/05/11 03:58:10;;;;;;;15.13;4.15;;;8.20;99.90;;;;;;4926197;29;20052;-90
2021/05/11 04:00:44;;;;;;;6.57;3.60;;;7.70;99.90;;;;;;4938005;29;20058;-90
2021/05/11 04:03:23;;;;;;;11.73;4.25;;;7.60;99.90;;;;;;4907628;29;20054;-89
2021/05/11 04:05:55;;;;;;;8.73;3.40;;;7.60;99.90;;;;;;4938556;29;20060;-90
2021/05/11 04:16:14;;;;;;;18.30;5.03;;;7.60;99.90;;;;;;4884831;29;20028;-90
2021/05/11 04:17:57;;;;;;;9.73;3.92;;;7.80;99.90;;;;;;4924329;29;20065;-91
2021/05/11 04:20:41;;;;;;;16.05;3.60;;;8.70;99.90;;;;;;4905992;29;20044;-89
2021/05/11 04:23:32;;;;;;;13.18;5.25;;;7.90;99.90;;;;;;4933568;29;20062;-88
2021/05/11 04:26:07;;;;;;;11.90;3.83;;;8.20;99.90;;;;;;4921311;29;20067;-90
2021/05/11 04:28:50;;;;;;;11.98;5.18;;;8.20;99.90;;;;;;4897563;29;20048;-89
2021/05/11 04:31:22;;;;;;;18.50;6.47;;;8.00;99.90;;;;;;4938522;29;20530;-89
2021/05/11 04:34:07;;;;;;;18.13;5.82;;;7.60;99.90;;;;;;4911862;29;20058;-90
2021/05/11 04:36:43;;;;;;;13.88;3.40;;;8.10;99.90;;;;;;4910045;29;20044;-91
2021/05/11 04:39:26;;;;;;;9.18;3.88;;;8.50;99.90;;;;;;4926733;29;20056;-90
2021/05/11 04:41:57;;;;;;;14.02;4.00;;;8.50;99.90;;;;;;4931471;29;20064;-90
2021/05/11 04:44:41;;;;;;;10.73;3.72;;;8.00;99.90;;;;;;4928567;29;20045;-88
2021/05/11 04:47:21;;;;;;;9.98;4.15;;;8.30;99.90;;;;;;4935242;29;20055;-90
2021/05/11 04:49:51;;;;;;;14.40;3.97;;;8.40;99.90;;;;;;4924977;29;20048;-89
2021/05/11 04:52:38;;;;;;;9.48;4.95;;;8.60;99.90;;;;;;4920752;29;20044;-90
2021/05/11 04:55:18;;;;;;;16.20;4.65;;;8.60;99.90;;;;;;4918235;29;20056;-90
2021/05/11 04:57:47;;;;;;;9.80;4.80;;;8.70;99.90;;;;;;4937278;29;20067;-91
2021/05/11 05:00:24;;;;;;;7.13;3.40;;;8.70;99.90;;;;;;4930792;29;20058;-88
2021/05/11 05:02:55;;;;;;;9.52;4.43;;;9.10;99.90;;;;;;4938811;29;20054;-90
2021/05/11 05:05:55;;;;;;;9.63;3.63;;;9.30;99.90;;;;;;4930670;29;20052;-89
2021/05/11 05:08:43;;;;;;;13.10;4.60;;;9.00;99.90;;;;;;4921487;29;20553;-91
2021/05/11 05:11:33;;;;;;;13.57;3.75;;;9.00;99.90;;;;;;4949458;29;20055;-90
2021/05/11 05:14:44;;;;;;;11.30;5.38;;;9.10;99.90;;;;;;4935418;29;20048;-90
2021/05/11 05:17:19;;;;;;;14.13;4.75;;;9.20;99.90;;;;;;4917474;29;20056;-89
2021/05/11 05:19:53;;;;;;;12.88;4.38;;;9.30;99.90;;;;;;4899446;29;20063;-91
2021/05/11 05:22:24;;;;;;;22.52;5.93;;;9.40;99.90;;;;;;4933820;29;20059;-91
2021/05/11 05:25:25;;;;;;;17.30;5.47;;;9.50;99.90;;;;;;4935354;29;20051;-90
2021/05/11 05:31:02;;;;;;;10.60;4.25;;;9.60;99.90;;;;;;4921777;29;20521;-91
2021/05/11 05:33:42;;;;;;;13.68;3.97;;;9.70;99.90;;;;;;4906592;29;20052;-91
2021/05/11 05:36:20;;;;;;;11.48;5.47;;;9.70;99.90;;;;;;4925808;29;20058;-91
2021/05/11 05:39:05;;;;;;;10.98;5.07;;;9.80;99.90;;;;;;4911587;29;20048;-91
2021/05/11 05:42:05;;;;;;;12.82;5.78;;;9.90;99.90;;;;;;4929704;29;20060;-89
2021/05/11 05:44:41;;;;;;;13.32;3.92;;;10.00;99.90;;;;;;4932501;29;20499;-91
2021/05/11 05:47:35;;;;;;;12.57;4.75;;;10.40;99.90;;;;;;4910452;29;20063;-91
2021/05/11 05:50:11;;;;;;;12.15;3.67;;;10.10;99.90;;;;;;4933979;29;20451;-90
2021/05/11 05:52:49;;;;;;;14.45;4.00;;;10.20;99.90;;;;;;4921231;29;20048;-90
2021/05/11 05:55:29;;;;;;;15.35;3.38;;;10.20;99.90;;;;;;4930928;29;20048;-91
2021/05/11 05:58:02;;;;;;;9.95;3.50;;;10.30;99.90;;;;;;4900674;29;20056;-91
2021/05/11 06:00:38;;;;;;;21.10;4.47;;;10.40;99.90;;;;;;4926825;29;20086;-90
2021/05/11 06:06:12;;;;;;;11.82;4.05;;;9.80;99.90;;;;;;4933208;29;20051;-90
2021/05/11 06:08:43;;;;;;;21.88;4.57;;;10.10;99.90;;;;;;4937685;29;20059;-90
2021/05/11 06:11:26;;;;;;;13.45;3.65;;;10.80;99.90;;;;;;4917627;29;20054;-90
2021/05/11 06:14:13;;;;;;;10.48;4.30;;;10.80;99.90;;;;;;4909940;29;20455;-90
2021/05/11 06:19:29;;;;;;;17.30;4.28;;;11.00;99.90;;;;;;4936655;29;20052;-88
2021/05/11 06:21:59;;;;;;;;;;;11.10;99.90;;;;;;4940604;29;20068;-89
2021/05/11 06:24:30;;;;;;;13.73;4.22;;;11.00;99.90;;;;;;4917940;29;20526;-88
2021/05/11 06:26:59;;;;;;;10.68;3.67;;;11.10;99.90;;;;;;4923733;29;20051;-89
2021/05/11 06:29:33;;;;;;;;;;;11.30;99.90;;;;;;4913270;29;20043;-88
2021/05/11 06:32:09;;;;;;;16.02;3.92;;;11.10;99.90;;;;;;4920501;29;19963;-87
2021/05/11 06:34:59;;;;;;;9.77;2.90;;;11.10;99.90;;;;;;4932758;29;20098;-89
2021/05/11 06:37:29;;;;;;;17.75;4.85;;;11.30;99.90;;;;;;4903444;29;20056;-87
2021/05/11 06:40:01;;;;;;;13.52;4.25;;;11.30;99.90;;;;;;4928499;29;20093;-90
2021/05/11 06:42:31;;;;;;;15.70;4.20;;;11.40;99.90;;;;;;4934910;29;20052;-89
2021/05/11 06:54:00;;;;;;;18.27;4.15;;;11.90;99.90;;;;;;4940899;29;20067;-89
2021/05/11 06:56:31;;;;;;;15.20;4.45;;;12.00;99.90;;;;;;4927378;29;20051;-90
2021/05/11 06:59:12;;;;;;;10.02;3.67;;;13.20;99.90;;;;;;4932109;29;20104;-90
2021/05/11 07:01:46;;;;;;;;;;;12.10;99.90;;;;;;4922179;29;20430;-85
2021/05/11 07:04:16;;;;;;;16.48;3.20;;;12.20;99.90;;;;;;4957661;29;19926;-86
2021/05/11 07:06:48;;;;;;;19.42;5.45;;;12.10;99.90;;;;;;4907274;29;20044;-89
2021/05/11 07:09:54;;;;;;;25.63;4.93;;;12.30;99.90;;;;;;4921912;29;20377;-88
2021/05/11 07:15:11;;;;;;;16.20;3.80;;;12.20;99.90;;;;;;4910594;29;20175;-87
2021/05/11 07:17:39;;;;;;;14.90;4.22;;;12.10;99.90;;;;;;4911274;29;20445;-88
2021/05/11 07:20:12;;;;;;;16.30;4.03;;;11.90;99.90;;;;;;4928968;29;20071;-88
2021/05/11 07:22:50;;;;;;;14.10;3.47;;;12.10;99.90;;;;;;4916060;29;20055;-91
2021/05/11 07:25:18;;;;;;;14.73;4.38;;;12.10;99.90;;;;;;4940107;29;20066;-89
2021/05/11 07:30:55;;;;;;;21.98;5.75;;;12.20;99.90;;;;;;4939248;29;20047;-89
2021/05/11 07:33:32;;;;;;;14.57;4.25;;;12.20;99.90;;;;;;4937431;29;20066;-90
2021/05/11 07:36:37;;;;;;;18.80;4.93;;;12.30;99.90;;;;;;4934952;29;20048;-89
2021/05/11 07:39:08;;;;;;;18.17;5.10;;;12.50;99.90;;;;;;4922580;29;20047;-88
2021/05/11 07:41:38;;;;;;;11.98;4.93;;;12.70;99.90;;;;;;4930431;29;20058;-89
2021/05/11 07:44:09;;;;;;;16.15;4.45;;;12.90;99.90;;;;;;4893695;29;20056;-89
2021/05/11 07:46:55;;;;;;;18.42;5.18;;;13.20;99.90;;;;;;4935744;29;20066;-89
2021/05/11 08:04:41;;;;;;;21.73;4.63;;;14.10;99.90;;;;;;4926585;29;20063;-89
2021/05/11 08:15:32;;;;;;;16.77;3.67;;;14.60;99.90;;;;;;4933632;29;20046;-89
2021/05/11 08:29:33;;;;;;;11.18;4.05;;;14.90;99.90;;;;;;4928375;29;20044;-89
2021/05/11 08:32:15;;;;;;;16.98;3.50;;;15.00;99.90;;;;;;4931574;29;20051;-88
2021/05/11 08:34:50;;;;;;;9.77;3.47;;;15.10;99.90;;;;;;4917102;29;20048;-88
2021/05/11 08:37:20;;;;;;;11.63;3.53;;;15.30;99.90;;;;;;4920597;29;20058;-89
2021/05/11 08:39:51;;;;;;;11.63;3.20;;;15.50;99.90;;;;;;4932855;29;20055;-88
2021/05/11 08:42:20;;;;;;;17.58;3.42;;;15.70;99.90;;;;;;4934876;29;20062;-88
2021/05/11 08:44:50;;;;;;;7.93;2.53;;;15.90;99.90;;;;;;4930894;29;20052;-88
2021/05/11 08:47:20;;;;;;;8.90;2.53;;;16.10;99.90;;;;;;4935290;29;20067;-88
2021/05/11 08:49:48;;;;;;;9.85;2.80;;;16.20;99.90;;;;;;4934344;29;20070;-88
2021/05/11 08:52:32;;;;;;;8.82;2.38;;;16.40;99.90;;;;;;4936041;29;20047;-90
2021/05/11 09:09:58;;;;;;;15.43;2.33;;;16.90;99.90;;;;;;4925903;29;20139;-89
2021/05/11 09:26:23;;;;;;;8.05;1.90;;;17.00;99.90;;;;;;4918470;29;20056;-87
2021/05/11 09:28:48;;;;;;;7.93;2.30;;;17.00;99.90;;;;;;4925145;29;20062;-88
2021/05/11 09:54:13;;;;;;;7.15;1.80;;;16.30;99.90;;;;;;4924761;29;20048;-89
2021/05/11 09:55:03;;;;;;;10.93;2.33;;;16.20;99.90;;;;;;4934879;29;20056;-90
2021/05/11 09:57:57;;;;;;;8.43;2.13;;;16.20;99.90;;;;;;4933049;29;20059;-88
2021/05/11 10:01:14;;;;;;;8.77;2.00;;;16.10;99.90;;;;;;4936346;29;20055;-89
2021/05/11 10:38:57;;;;;;;7.63;1.90;;;16.70;99.90;;;;;;4929954;29;20052;-89
2021/05/11 10:49:26;;;;;;;12.40;1.85;;;16.90;99.90;;;;;;4927441;29;20051;-91
2021/05/11 10:52:14;;;;;;;11.38;3.10;;;16.90;99.90;;;;;;4939472;29;20075;-92
2021/05/11 10:55:15;;;;;;;4.32;1.52;;;16.90;99.90;;;;;;4937818;29;20067;-90
2021/05/11 10:57:58;;;;;;;8.88;2.28;;;17.00;99.90;;;;;;4935533;29;20056;-90
2021/05/11 11:00:30;;;;;;;5.22;1.88;;;17.10;99.90;;;;;;4920785;29;20507;-90
2021/05/11 11:03:27;;;;;;;6.88;1.90;;;17.20;99.90;;;;;;4931189;29;20052;-89
2021/05/11 11:06:04;;;;;;;8.07;2.75;;;17.30;99.90;;;;;;4916000;29;20052;-88
2021/05/11 11:08:39;;;;;;;9.65;2.38;;;17.40;99.90;;;;;;4920576;29;20062;-88
2021/05/11 11:11:20;;;;;;;7.20;3.33;;;17.50;99.90;;;;;;4918171;29;20070;-88
2021/05/11 11:14:04;;;;;;;2.10;1.53;;;17.60;99.90;;;;;;4940178;29;20052;-89
2021/05/11 11:16:58;;;;;;;12.50;1.77;;;17.70;99.90;;;;;;4934071;29;20051;-89
2021/05/11 11:19:28;;;;;;;5.57;3.15;;;17.80;99.90;;;;;;4906910;29;20063;-90
2021/05/11 11:24:58;;;;;;;8.75;1.88;;;18.40;99.90;;;;;;4916775;29;20048;-87
2021/05/11 11:27:36;;;;;;;12.85;2.35;;;18.00;99.90;;;;;;4921835;29;20415;-88
2021/05/11 11:30:13;;;;;;;7.57;2.20;;;18.10;99.90;;;;;;4935288;29;20059;-88
2021/05/11 11:32:43;;;;;;;8.00;3.95;;;18.10;99.90;;;;;;4918324;29;20385;-86
2021/05/11 11:35:12;;;;;;;15.90;1.73;;;18.00;99.90;;;;;;4921597;29;20066;-87
2021/05/11 11:37:41;;;;;;;4.70;1.60;;;18.10;99.90;;;;;;4920467;29;20044;-87
2021/05/11 11:40:12;;;;;;;6.57;1.30;;;18.20;99.90;;;;;;4917227;29;20060;-89
2021/05/11 11:42:43;;;;;;;4.53;1.20;;;18.30;99.20;;;;;;4921402;29;20047;-87
2021/05/11 11:45:28;;;;;;;6.35;1.67;;;18.20;97.80;;;;;;4918308;29;20062;-87
2021/05/11 11:48:03;;;;;;;5.60;1.45;;;18.20;98.40;;;;;;4928541;29;20059;-88
2021/05/11 11:50:37;;;;;;;6.68;1.88;;;18.30;98.00;;;;;;4928174;29;20056;-88
2021/05/11 11:53:19;;;;;;;5.60;1.40;;;18.50;97.40;;;;;;4929460;29;20082;-88
2021/05/11 11:58:32;;;;;;;17.45;3.60;;;18.90;96.40;;;;;;4931411;29;20055;-89
2021/05/11 12:01:19;;;;;;;11.02;1.67;;;19.10;95.10;;;;;;4935284;29;20052;-87
2021/05/11 12:03:55;;;;;;;12.77;3.05;;;19.30;93.20;;;;;;4930496;29;20059;-88
2021/05/11 12:06:41;;;;;;;4.47;1.90;;;19.30;93.20;;;;;;4933679;29;20047;-87
2021/05/11 12:09:13;;;;;;;7.20;1.73;;;19.20;94.30;;;;;;4927975;29;20063;-87
2021/05/11 12:11:48;;;;;;;11.50;2.10;;;19.20;94.10;;;;;;4917069;29;20048;-86
2021/05/11 12:14:18;;;;;;;7.18;1.88;;;19.20;93.60;;;;;;4902210;29;20063;-87
2021/05/11 12:16:52;;;;;;;5.15;1.23;;;19.10;94.00;;;;;;4920007;29;20056;-87
2021/05/11 12:19:27;;;;;;;2.45;1.08;;;19.10;92.80;;;;;;4924180;29;20044;-87
2021/05/11 12:22:05;;;;;;;7.72;1.48;;;19.10;92.30;;;;;;4925848;29;20060;-89
2021/05/11 12:24:41;;;;;;;9.82;1.73;;;18.90;91.50;;;;;;4921004;29;20511;-87
2021/05/11 12:27:19;;;;;;;8.77;2.10;;;18.90;92.00;;;;;;4928753;29;20047;-89
2021/05/11 12:30:05;;;;;;;12.07;3.00;;;19.00;91.90;;;;;;4917494;29;20052;-86
2021/05/11 12:32:35;;;;;;;6.82;2.25;;;19.10;90.80;;;;;;4933374;29;20048;-86
2021/05/11 12:35:14;;;;;;;14.20;1.42;;;19.20;91.40;;;;;;4927425;29;20422;-87
2021/05/11 12:37:55;;;;;;;5.50;1.52;;;19.30;90.70;;;;;;4927738;29;20427;-87
2021/05/11 12:40:40;;;;;;;9.13;3.30;;;19.40;90.70;;;;;;4929226;29;20052;-88
2021/05/11 12:43:14;;;;;;;14.73;1.77;;;19.40;91.00;;;;;;4925884;29;20060;-87
2021/05/11 12:45:52;;;;;;;3.55;1.63;;;19.40;90.20;;;;;;4926841;29;20059;-89
2021/05/11 12:48:24;;;;;;;6.43;1.00;;;19.40;90.00;;;;;;4920359;29;20056;-87
2021/05/11 12:50:56;;;;;;;8.40;1.50;;;19.40;89.10;;;;;;4926224;29;20052;-88
2021/05/11 12:53:39;;;;;;;9.73;1.75;;;19.50;89.20;;;;;;4917959;29;20055;-87
2021/05/11 12:56:29;;;;;;;4.93;1.08;;;19.50;88.90;;;;;;4925686;29;20507;-86
2021/05/11 12:59:12;;;;;;;10.35;1.23;;;19.40;85.40;;;;;;4926435;29;20412;-88
2021/05/11 13:25:55;;;;;;;7.50;1.52;;;19.40;82.60;;;;;;4924279;29;20453;-86
2021/05/11 13:28:40;;;;;;;4.93;1.23;;;19.10;82.30;;;;;;4904024;29;20515;-89
2021/05/11 13:31:24;;;;;;;3.72;1.42;;;19.20;83.30;;;;;;4932117;29;20063;-89
2021/05/11 13:36:29;;;;;;;6.05;1.27;;;19.80;82.80;;;;;;4934530;29;20058;-89
2021/05/11 13:38:58;;;;;;;6.28;1.75;;;20.00;82.90;;;;;;4939229;29;20423;-88
2021/05/11 13:41:30;;;;;;;3.70;1.00;;;19.80;78.10;;;;;;4946863;29;20060;-89
2021/05/11 13:44:01;;;;;;;5.68;1.08;;;20.00;76.60;;;;;;4920544;29;20059;-87
2021/05/11 13:46:30;;;;;;;4.50;1.35;;;20.10;77.00;;;;;;4922762;29;20056;-87
2021/05/11 13:49:05;;;;;;;9.48;1.83;;;20.00;74.50;;;;;;4939429;29;20052;-88
2021/05/11 13:51:38;;;;;;;;;;;19.90;75.60;;;;;;4918223;29;20051;-89
2021/05/11 13:54:18;;;;;;;2.70;1.20;;;20.00;74.10;;;;;;4935579;29;20291;-89
2021/05/11 14:04:50;;;;;;;2.97;0.85;;;20.90;75.20;;;;;;4935182;29;20060;-91
2021/05/11 14:07:25;;;;;;;2.92;0.80;;;21.10;74.00;;;;;;4935396;29;20062;-90
2021/05/11 14:09:54;;;;;;;2.20;0.70;;;21.20;73.00;;;;;;4920565;29;20060;-88
2021/05/11 14:12:25;;;;;;;;;;;21.60;68.50;;;;;;4913713;29;20059;-87
2021/05/11 14:14:57;;;;;;;5.65;1.35;;;21.90;67.10;;;;;;4927016;29;19923;-86
2021/05/11 14:17:33;;;;;;;4.03;0.88;;;22.30;65.90;;;;;;4909884;29;20059;-84
2021/05/11 14:20:04;;;;;;;5.47;1.10;;;22.30;65.00;;;;;;4931031;29;20055;-84
2021/05/11 14:22:33;;;;;;;4.57;0.98;;;22.60;64.20;;;;;;4912098;29;20060;-88
2021/05/11 14:25:03;;;;;;;7.32;1.02;;;22.70;64.10;;;;;;4907938;29;20043;-85
2021/05/11 14:27:35;;;;;;;3.10;1.27;;;23.10;62.20;;;;;;4934084;29;20308;-85
2021/05/11 14:30:07;;;;;;;;;;;23.40;59.40;;;;;;4943270;29;20060;-86
2021/05/11 14:32:38;;;;;;;3.60;1.98;;;23.40;57.10;;;;;;4934754;29;19934;-84
2021/05/11 14:35:07;;;;;;;7.18;1.38;;;23.40;56.80;;;;;;4941157;29;20064;-87
2021/05/11 14:37:36;;;;;;;10.35;2.20;;;23.20;56.80;;;;;;4922974;29;20507;-83
2021/05/11 14:40:05;;;;;;;2.45;0.70;;;23.20;54.90;;;;;;4937331;29;20171;-80
2021/05/11 14:42:36;;;;;;;5.82;1.38;;;23.20;54.30;;;;;;4929848;29;20059;-82
2021/05/11 14:45:13;;;;;;;8.77;2.00;;;23.30;55.10;;;;;;4932313;29;20063;-82
2021/05/11 14:47:46;;;;;;;5.07;1.45;;;23.40;55.00;;;;;;4933721;29;20056;-84
2021/05/11 14:50:19;;;;;;;3.83;1.33;;;23.30;55.00;;;;;;4930598;29;20066;-83
2021/05/11 14:52:57;;;;;;;3.83;0.98;;;23.30;55.00;;;;;;4929596;29;20795;-83
2021/05/11 14:55:27;;;;;;;3.45;1.58;;;22.80;54.20;;;;;;4937395;29;20060;-83
2021/05/11 14:57:55;;;;;;;2.03;0.63;;;23.60;53.80;;;;;;4932876;29;20048;-83
2021/05/11 15:00:27;;;;;;;10.82;2.85;;;23.60;53.40;;;;;;4933313;29;20582;-82
2021/05/11 15:02:55;;;;;;;3.92;1.38;;;22.70;53.70;;;;;;4921594;29;20044;-85
2021/05/11 15:05:31;;;;;;;7.88;1.65;;;23.20;53.40;;;;;;4930383;29;20043;-86
2021/05/11 15:07:59;;;;;;;3.40;1.25;;;22.90;53.70;;;;;;4931486;29;20415;-81
2021/05/11 15:10:31;;;;;;;6.20;1.38;;;22.40;54.30;;;;;;4914753;29;20063;-82
2021/05/11 15:13:00;;;;;;;4.43;2.08;;;21.90;54.70;;;;;;4919494;29;20056;-83
2021/05/11 15:15:33;;;;;;;7.07;1.40;;;21.20;55.10;;;;;;4931542;29;20059;-86
2021/05/11 15:18:05;;;;;;;3.47;1.13;;;20.50;56.70;;;;;;4913953;29;20048;-82
2021/05/11 15:20:34;;;;;;;8.40;2.22;;;20.20;57.30;;;;;;4929360;29;20059;-83
2021/05/11 15:23:06;;;;;;;7.03;1.67;;;20.40;57.50;;;;;;4928895;29;20058;-83
2021/05/11 15:25:34;;;;;;;8.43;1.38;;;21.00;56.90;;;;;;4935386;29;20067;-84
2021/05/11 15:28:03;;;;;;;2.38;0.93;;;21.50;56.60;;;;;;4933873;29;20056;-83
2021/05/11 15:30:35;;;;;;;4.05;1.67;;;21.60;54.90;;;;;;4593533;29;10000683;-87
2021/05/11 15:33:09;;;;;;;2.67;1.17;;;21.80;54.40;;;;;;4939019;29;20062;-83
2021/05/11 15:35:41;;;;;;;8.75;2.63;;;21.70;54.30;;;;;;4919943;29;20078;-81
2021/05/11 15:38:09;;;;;;;7.43;1.90;;;21.50;54.20;;;;;;4926076;29;20048;-85
2021/05/11 15:40:41;;;;;;;7.53;1.52;;;21.50;54.40;;;;;;4927700;29;20056;-85
2021/05/11 15:43:11;;;;;;;5.20;1.50;;;21.90;55.00;;;;;;4931467;29;20055;-82
2021/05/11 15:46:00;;;;;;;6.53;2.03;;;22.30;54.00;;;;;;4944908;29;20047;-86
2021/05/11 15:48:58;;;;;;;3.70;1.65;;;22.20;51.40;;;;;;4923211;29;20048;-84
2021/05/11 15:51:28;;;;;;;6.30;1.23;;;22.20;51.50;;;;;;4933720;29;20048;-83
2021/05/11 15:53:58;;;;;;;5.78;1.35;;;22.10;52.60;;;;;;4920905;29;20432;-83
2021/05/11 15:56:32;;;;;;;4.45;1.30;;;22.00;51.90;;;;;;4932135;29;20414;-83
2021/05/11 15:59:11;;;;;;;6.05;1.40;;;22.10;51.20;;;;;;4917009;29;20055;-84
2021/05/11 16:01:40;;;;;;;3.53;1.08;;;21.70;51.40;;;;;;4931174;29;20063;-84
2021/05/11 16:04:16;;;;;;;4.90;1.45;;;21.30;52.50;;;;;;4932152;29;20063;-86
2021/05/11 16:06:44;;;;;;;3.90;1.17;;;20.80;52.30;;;;;;4930789;29;20052;-83
2021/05/11 16:09:13;;;;;;;5.28;1.40;;;20.40;53.10;;;;;;4931226;29;20047;-85
2021/05/11 16:12:04;;;;;;;6.05;2.50;;;20.60;53.50;;;;;;4922421;29;20075;-85
2021/05/11 16:14:34;;;;;;;8.48;1.70;;;20.70;53.30;;;;;;4924576;29;20055;-83
2021/05/11 16:17:05;;;;;;;3.08;1.30;;;20.40;54.90;;;;;;4927713;29;20056;-84
2021/05/11 16:19:34;;;;;;;5.63;1.58;;;20.40;54.60;;;;;;4931420;29;20051;-85
2021/05/11 16:22:04;;;;;;;5.43;1.38;;;20.70;55.00;;;;;;4928190;29;20063;-84
2021/05/11 16:24:53;;;;;;;5.88;1.55;;;21.20;54.40;;;;;;4928939;29;20070;-85
2021/05/11 16:27:22;;;;;;;7.45;1.70;;;22.00;53.80;;;;;;4931181;29;20048;-86
2021/05/11 16:29:51;;;;;;;7.40;2.08;;;22.60;53.00;;;;;;4934822;29;20059;-85
2021/05/11 16:32:21;;;;;;;4.43;1.13;;;23.10;52.30;;;;;;4940363;29;20060;-87
2021/05/11 16:34:52;;;;;;;6.05;2.33;;;23.40;51.50;;;;;;4927130;29;20516;-86
2021/05/11 16:37:27;;;;;;;4.97;0.93;;;23.60;51.50;;;;;;4918619;29;20052;-85
2021/05/11 16:39:57;;;;;;;8.40;2.00;;;23.80;50.90;;;;;;4917425;29;20523;-85
2021/05/11 16:42:30;;;;;;;9.52;1.77;;;23.80;50.40;;;;;;4932564;29;20044;-87
2021/05/11 16:45:09;;;;;;;10.32;3.88;;;23.90;50.80;;;;;;4929822;29;20048;-88
2021/05/11 16:47:54;;;;;;;10.70;3.33;;;24.10;50.50;;;;;;4938572;29;20048;-84
2021/05/11 16:50:30;;;;;;;8.32;1.77;;;24.10;50.40;;;;;;4934953;29;20052;-86
2021/05/11 16:53:02;;;;;;;6.63;0.98;;;24.30;50.10;;;;;;4958275;28;20071;-86
2021/05/11 16:55:31;;;;;;;7.35;1.73;;;24.10;50.30;;;;;;4916384;29;20063;-87
2021/05/11 16:58:00;;;;;;;5.63;1.38;;;23.70;50.40;;;;;;4940620;29;20055;-88
2021/05/11 17:00:31;;;;;;;7.72;2.05;;;23.10;51.00;;;;;;4913279;29;20044;-87
2021/05/11 17:03:18;;;;;;;11.43;1.88;;;22.20;52.30;;;;;;4936515;29;20064;-90
2021/05/11 17:05:51;;;;;;;12.48;2.47;;;21.40;54.70;;;;;;4935021;29;20056;-85
2021/05/11 17:08:24;;;;;;;6.20;1.67;;;20.70;54.90;;;;;;4928240;29;20067;-87
2021/05/11 17:10:59;;;;;;;6.68;1.13;;;20.50;56.00;;;;;;4931772;29;20047;-84
2021/05/11 17:13:37;;;;;;;5.85;1.35;;;20.40;55.80;;;;;;4933294;29;20055;-87
2021/05/11 17:16:10;;;;;;;8.68;1.77;;;20.20;56.50;;;;;;4935016;29;20051;-86
2021/05/11 17:18:45;;;;;;;11.45;2.50;;;20.00;57.00;;;;;;4940591;29;20071;-85
2021/05/11 17:21:15;;;;;;;3.67;1.55;;;19.40;57.80;;;;;;4933383;29;20360;-88
2021/05/11 17:23:50;;;;;;;7.00;2.63;;;19.10;59.40;;;;;;4927534;29;20055;-86
2021/05/11 17:26:37;;;;;;;7.32;1.70;;;18.70;60.30;;;;;;4936652;29;20056;-88
2021/05/11 17:29:17;;;;;;;5.95;1.52;;;18.20;61.50;;;;;;4947214;29;20063;-87
2021/05/11 17:32:05;;;;;;;5.70;1.80;;;16.80;62.00;;;;;;4935898;29;20051;-87
2021/05/11 17:34:47;;;;;;;4.93;1.48;;;18.00;62.80;;;;;;4916483;29;20044;-88
2021/05/11 17:37:23;;;;;;;10.88;3.15;;;18.30;62.90;;;;;;4959043;29;20134;-90
2021/05/11 17:39:59;;;;;;;6.93;2.30;;;18.30;61.80;;;;;;4929458;29;20058;-87
2021/05/11 17:42:39;;;;;;;5.22;1.80;;;18.20;62.30;;;;;;4957747;29;20063;-90
2021/05/11 17:45:17;;;;;;;11.25;2.80;;;18.30;62.40;;;;;;4922600;29;20064;-88
2021/05/11 17:47:58;;;;;;;5.88;1.80;;;18.30;62.30;;;;;;4941582;29;20190;-90
2021/05/11 17:50:30;;;;;;;10.63;1.95;;;18.30;62.80;;;;;;4940006;29;20056;-87